createdAt,value
2018-07-05T00:02:11.756Z,99.90
2018-07-05T00:04:50.899Z,99.90
2018-07-05T00:07:30.182Z,99.90
2018-07-05T00:10:09.276Z,99.90
2018-07-05T00:12:59.589Z,99.90
2018-07-05T00:15:39.226Z,99.90
2018-07-05T00:18:18.386Z,99.90
2018-07-05T00:20:57.382Z,99.90
2018-07-05T00:23:36.488Z,99.90
2018-07-05T00:26:15.724Z,99.90
2018-07-05T00:28:54.778Z,99.90
2018-07-05T00:31:33.920Z,99.90
2018-07-05T00:34:13.333Z,99.90
2018-07-05T00:36:52.370Z,99.90
2018-07-05T00:39:31.382Z,99.90
2018-07-05T00:42:10.427Z,99.90
2018-07-05T00:44:49.749Z,99.90
2018-07-05T00:47:28.875Z,99.90
2018-07-05T00:50:44.453Z,99.90
2018-07-05T00:53:24.414Z,99.90
2018-07-05T00:56:03.641Z,99.90
2018-07-05T00:58:51.461Z,99.90
2018-07-05T01:04:04.540Z,99.90
2018-07-05T01:06:43.716Z,99.90
2018-07-05T01:09:22.854Z,99.90
2018-07-05T01:12:02.221Z,99.90
2018-07-05T01:14:41.446Z,99.90
2018-07-05T01:17:20.675Z,99.90
2018-07-05T01:19:59.938Z,99.90
2018-07-05T01:22:39.175Z,99.90
2018-07-05T01:25:18.991Z,99.90
2018-07-05T01:27:58.050Z,99.90
2018-07-05T01:30:37.510Z,99.90
2018-07-05T01:33:16.764Z,99.90
2018-07-05T01:35:56.059Z,99.90
2018-07-05T01:38:35.263Z,99.90
2018-07-05T01:41:14.583Z,99.90
2018-07-05T01:43:54.747Z,99.90
2018-07-05T01:46:34.673Z,99.90
2018-07-05T01:49:14.030Z,99.90
2018-07-05T01:51:53.073Z,99.90
2018-07-05T01:54:32.430Z,99.90
2018-07-05T01:57:12.952Z,99.90
2018-07-05T01:59:53.066Z,99.90
2018-07-05T02:02:32.471Z,99.90
2018-07-05T02:05:12.395Z,99.90
2018-07-05T02:07:51.960Z,99.90
2018-07-05T02:10:32.174Z,99.90
2018-07-05T02:15:44.874Z,99.90
2018-07-05T02:18:24.101Z,99.90
2018-07-05T02:21:03.416Z,99.90
2018-07-05T02:23:42.437Z,99.90
2018-07-05T02:26:22.902Z,99.90
2018-07-05T02:29:01.963Z,99.90
2018-07-05T02:31:41.091Z,99.90
2018-07-05T02:34:20.326Z,99.90
2018-07-05T02:36:59.518Z,99.90
2018-07-05T02:39:44.353Z,99.90
2018-07-05T02:42:23.460Z,99.90
2018-07-05T02:45:02.673Z,99.90
2018-07-05T02:47:41.949Z,99.90
2018-07-05T02:50:21.362Z,99.90
2018-07-05T02:53:00.561Z,99.90
2018-07-05T02:55:40.512Z,99.90
2018-07-05T02:58:19.827Z,99.90
2018-07-05T03:00:59.283Z,99.90
2018-07-05T03:03:38.493Z,99.90
2018-07-05T03:06:17.634Z,99.90
2018-07-05T03:08:57.814Z,99.90
2018-07-05T03:11:36.930Z,99.90
2018-07-05T03:14:16.369Z,99.90
2018-07-05T03:16:56.035Z,99.90
2018-07-05T03:19:35.516Z,99.90
2018-07-05T03:22:14.793Z,99.90
2018-07-05T03:24:54.100Z,99.90
2018-07-05T03:27:33.231Z,99.90
2018-07-05T03:30:12.590Z,99.90
2018-07-05T03:32:52.385Z,99.90
2018-07-05T03:35:31.519Z,99.90
2018-07-05T03:38:10.723Z,99.90
2018-07-05T03:43:25.430Z,99.90
2018-07-05T03:46:06.398Z,99.90
2018-07-05T03:48:45.496Z,99.90
2018-07-05T03:53:58.721Z,99.90
2018-07-05T03:56:37.959Z,99.90
2018-07-05T04:01:51.968Z,99.90
2018-07-05T04:07:05.289Z,99.90
2018-07-05T04:12:19.010Z,99.90
2018-07-05T04:14:58.439Z,99.90
2018-07-05T04:17:37.775Z,99.90
2018-07-05T04:20:17.188Z,99.90
2018-07-05T04:22:56.471Z,99.90
2018-07-05T04:25:35.965Z,99.90
2018-07-05T04:28:15.250Z,99.90
2018-07-05T04:30:54.817Z,99.90
2018-07-05T04:33:34.146Z,99.90
2018-07-05T04:36:13.414Z,99.90
2018-07-05T04:38:53.818Z,99.90
2018-07-05T04:44:07.010Z,99.90
2018-07-05T04:46:46.464Z,99.90
2018-07-05T04:49:25.887Z,99.90
2018-07-05T04:52:05.245Z,99.90
2018-07-05T04:54:44.968Z,99.90
2018-07-05T04:57:24.081Z,99.90
2018-07-05T05:00:03.260Z,99.90
2018-07-05T05:02:42.330Z,99.90
2018-07-05T05:05:21.488Z,99.90
2018-07-05T05:08:00.648Z,99.90
2018-07-05T05:10:40.146Z,99.90
2018-07-05T05:13:19.302Z,99.90
2018-07-05T05:15:58.551Z,99.90
2018-07-05T05:18:37.855Z,99.90
2018-07-05T05:21:17.438Z,99.90
2018-07-05T05:23:57.263Z,99.90
2018-07-05T05:26:36.718Z,99.90
2018-07-05T05:29:15.762Z,99.90
2018-07-05T05:31:55.192Z,99.90
2018-07-05T05:37:07.971Z,99.90
2018-07-05T05:39:47.308Z,99.90
2018-07-05T05:42:26.698Z,99.90
2018-07-05T05:45:06.232Z,99.90
2018-07-05T05:47:45.692Z,99.90
2018-07-05T05:50:24.825Z,99.90
2018-07-05T05:53:04.459Z,99.90
2018-07-05T05:55:43.766Z,99.90
2018-07-05T05:58:23.925Z,99.90
2018-07-05T06:01:04.275Z,99.90
2018-07-05T06:03:43.462Z,99.90
2018-07-05T06:06:23.029Z,99.90
2018-07-05T06:09:04.296Z,99.90
2018-07-05T06:11:47.290Z,99.90
2018-07-05T06:14:26.603Z,99.90
2018-07-05T06:19:40.702Z,99.90
2018-07-05T06:22:20.253Z,99.90
2018-07-05T06:24:59.270Z,99.90
2018-07-05T06:27:38.753Z,99.90
2018-07-05T06:30:18.098Z,99.90
2018-07-05T06:32:58.027Z,99.90
2018-07-05T06:35:37.449Z,99.90
2018-07-05T06:38:17.187Z,99.90
2018-07-05T06:40:56.616Z,99.90
2018-07-05T06:43:35.869Z,99.90
2018-07-05T06:46:15.901Z,99.90
2018-07-05T06:48:55.316Z,99.90
2018-07-05T06:51:34.737Z,99.90
2018-07-05T06:56:48.261Z,98.30
2018-07-05T06:59:28.553Z,97.00
2018-07-05T07:02:07.951Z,96.00
2018-07-05T07:04:47.202Z,94.80
2018-07-05T07:07:26.483Z,93.30
2018-07-05T07:10:07.151Z,92.00
2018-07-05T07:12:46.707Z,91.20
2018-07-05T07:15:25.951Z,91.50
2018-07-05T07:18:05.478Z,91.00
2018-07-05T07:20:45.011Z,90.30
2018-07-05T07:23:25.310Z,91.90
2018-07-05T07:28:39.123Z,91.10
2018-07-05T07:31:18.966Z,90.00
2018-07-05T07:33:58.412Z,87.10
2018-07-05T07:36:37.563Z,86.00
2018-07-05T07:41:48.173Z,84.20
2018-07-05T07:44:17.733Z,84.40
2018-07-05T07:46:45.270Z,84.00
2018-07-05T07:49:12.314Z,83.10
2018-07-05T07:51:41.339Z,81.70
2018-07-05T07:54:08.356Z,84.10
2018-07-05T07:56:35.104Z,85.40
2018-07-05T07:59:02.346Z,84.70
2018-07-05T08:01:30.325Z,80.80
2018-07-05T08:03:57.356Z,80.70
2018-07-05T08:06:24.141Z,78.10
2018-07-05T08:08:51.737Z,78.60
2018-07-05T08:11:18.990Z,77.30
2018-07-05T08:13:46.794Z,78.20
2018-07-05T08:16:17.084Z,76.30
2018-07-05T08:18:44.207Z,75.60
2018-07-05T08:21:12.215Z,74.60
2018-07-05T08:23:39.085Z,78.70
2018-07-05T08:26:06.724Z,79.60
2018-07-05T08:28:33.574Z,83.60
2018-07-05T08:31:01.250Z,85.70
2018-07-05T08:33:28.326Z,82.10
2018-07-05T08:35:55.249Z,83.80
2018-07-05T08:38:22.634Z,80.40
2018-07-05T08:40:49.605Z,77.10
2018-07-05T08:43:16.394Z,77.00
2018-07-05T08:45:43.481Z,78.50
2018-07-05T08:48:10.887Z,76.80
2018-07-05T08:50:38.867Z,74.50
2018-07-05T08:53:07.924Z,73.70
2018-07-05T08:55:34.727Z,74.70
2018-07-05T08:58:01.561Z,74.60
2018-07-05T09:00:28.735Z,72.00
2018-07-05T09:02:55.815Z,71.10
2018-07-05T09:05:26.917Z,70.00
2018-07-05T09:07:54.063Z,69.60
2018-07-05T09:10:22.311Z,70.90
2018-07-05T09:12:49.561Z,71.80
2018-07-05T09:15:17.423Z,72.60
2018-07-05T09:17:45.603Z,73.90
2018-07-05T09:20:13.284Z,75.20
2018-07-05T09:22:41.403Z,76.30
2018-07-05T09:25:08.451Z,77.00
2018-07-05T09:27:35.732Z,79.80
2018-07-05T09:30:02.758Z,75.20
2018-07-05T09:32:29.660Z,75.10
2018-07-05T09:34:56.658Z,73.70
2018-07-05T09:37:23.777Z,72.90
2018-07-05T09:39:51.772Z,73.20
2018-07-05T09:42:20.416Z,75.30
2018-07-05T09:44:47.898Z,75.00
2018-07-05T09:47:15.802Z,76.40
2018-07-05T09:49:42.618Z,75.70
2018-07-05T09:52:09.513Z,76.80
2018-07-05T09:54:36.607Z,79.20
2018-07-05T09:57:06.204Z,79.80
2018-07-05T09:59:33.346Z,81.90
2018-07-05T10:02:00.127Z,83.00
2018-07-05T10:04:27.237Z,84.40
2018-07-05T10:06:54.053Z,86.70
2018-07-05T10:09:20.866Z,87.40
2018-07-05T10:11:48.004Z,86.70
2018-07-05T10:14:14.982Z,86.60
2018-07-05T10:16:43.186Z,86.70
2018-07-05T10:19:12.496Z,86.80
2018-07-05T10:21:39.654Z,87.20
2018-07-05T10:24:10.262Z,86.40
2018-07-05T10:26:37.322Z,86.80
2018-07-05T10:29:16.858Z,88.80
2018-07-05T10:31:56.363Z,90.10
2018-07-05T10:34:24.275Z,90.30
2018-07-05T10:36:51.520Z,90.60
2018-07-05T10:39:18.470Z,90.40
2018-07-05T10:41:58.379Z,90.40
2018-07-05T10:44:38.782Z,90.00
2018-07-05T10:47:18.199Z,90.00
2018-07-05T10:49:57.378Z,89.60
2018-07-05T10:52:37.991Z,90.00
2018-07-05T10:55:18.716Z,90.10
2018-07-05T10:57:58.051Z,90.10
2018-07-05T11:00:37.363Z,90.00
2018-07-05T11:03:17.783Z,90.30
2018-07-05T11:05:56.873Z,91.10
2018-07-05T11:08:37.388Z,92.80
2018-07-05T11:11:16.611Z,92.00
2018-07-05T11:13:57.898Z,92.00
2018-07-05T11:16:40.923Z,90.30
2018-07-05T11:19:20.168Z,90.20
2018-07-05T11:21:59.353Z,88.50
2018-07-05T11:24:38.601Z,87.00
2018-07-05T11:27:19.188Z,86.50
2018-07-05T11:29:58.363Z,85.30
2018-07-05T11:32:38.869Z,83.40
2018-07-05T11:35:19.201Z,79.10
2018-07-05T11:37:58.341Z,78.20
2018-07-05T11:40:37.634Z,77.70
2018-07-05T11:43:17.593Z,76.00
2018-07-05T11:45:56.776Z,74.10
2018-07-05T11:48:36.008Z,71.60
2018-07-05T11:51:15.337Z,71.50
2018-07-05T11:53:57.083Z,72.30
2018-07-05T11:56:38.438Z,73.40
2018-07-05T11:59:17.684Z,70.20
2018-07-05T12:01:57.438Z,69.50
2018-07-05T12:04:38.576Z,69.10
2018-07-05T12:07:18.598Z,71.20
2018-07-05T12:09:57.830Z,70.70
2018-07-05T12:12:37.320Z,70.10
2018-07-05T12:15:17.680Z,68.60
2018-07-05T12:17:58.251Z,69.40
2018-07-05T12:20:38.184Z,70.10
2018-07-05T12:23:18.593Z,69.70
2018-07-05T12:25:58.606Z,70.40
2018-07-05T12:28:37.933Z,70.30
2018-07-05T12:31:17.245Z,70.40
2018-07-05T12:33:56.803Z,71.30
2018-07-05T12:36:37.158Z,70.40
2018-07-05T12:39:21.675Z,71.80
2018-07-05T12:42:00.976Z,72.40
2018-07-05T12:44:41.833Z,73.50
2018-07-05T12:47:21.795Z,72.50
2018-07-05T12:50:01.287Z,71.60
2018-07-05T12:52:41.385Z,71.70
2018-07-05T12:55:20.987Z,71.20
2018-07-05T12:58:00.822Z,72.80
2018-07-05T13:00:40.267Z,73.60
2018-07-05T13:03:21.910Z,76.10
2018-07-05T13:06:01.437Z,77.60
2018-07-05T13:08:41.458Z,78.90
2018-07-05T13:11:20.755Z,78.30
2018-07-05T13:14:00.242Z,78.70
2018-07-05T13:16:39.528Z,80.70
2018-07-05T13:19:21.848Z,83.30
2018-07-05T13:22:00.984Z,84.90
2018-07-05T13:24:40.323Z,87.40
2018-07-05T13:27:19.818Z,90.10
2018-07-05T13:29:59.753Z,91.20
2018-07-05T13:32:39.138Z,91.70
2018-07-05T13:35:18.212Z,91.90
2018-07-05T13:37:57.179Z,92.20
2018-07-05T13:40:37.478Z,92.40
2018-07-05T13:43:18.565Z,92.20
2018-07-05T13:45:57.518Z,92.30
2018-07-05T13:48:37.218Z,91.80
2018-07-05T13:51:17.022Z,91.70
2018-07-05T13:53:56.723Z,91.50
2018-07-05T13:56:37.044Z,91.70
2018-07-05T13:59:17.729Z,91.80
2018-07-05T14:01:57.089Z,92.80
2018-07-05T14:07:10.040Z,93.40
2018-07-05T14:09:50.062Z,93.40
2018-07-05T14:12:29.238Z,93.40
2018-07-05T14:15:08.631Z,93.50
2018-07-05T14:17:47.917Z,93.80
2018-07-05T14:20:27.630Z,92.60
2018-07-05T14:23:07.503Z,91.90
2018-07-05T14:25:46.618Z,91.40
2018-07-05T14:28:28.791Z,91.00
2018-07-05T14:31:07.857Z,90.70
2018-07-05T14:33:50.293Z,91.00
2018-07-05T14:36:33.892Z,90.00
2018-07-05T14:39:13.890Z,90.10
2018-07-05T14:41:53.018Z,90.60
2018-07-05T14:44:32.090Z,90.70
2018-07-05T14:47:11.238Z,91.40
2018-07-05T14:49:52.899Z,91.40
2018-07-05T14:52:32.553Z,91.10
2018-07-05T14:55:11.835Z,90.60
2018-07-05T14:57:51.107Z,90.80
2018-07-05T15:00:30.095Z,90.90
2018-07-05T15:03:09.222Z,91.00
2018-07-05T15:05:48.406Z,91.10
2018-07-05T15:08:29.146Z,91.40
2018-07-05T15:11:08.864Z,91.60
2018-07-05T15:13:47.950Z,91.90
2018-07-05T15:16:27.255Z,92.10
2018-07-05T15:19:06.716Z,92.00
2018-07-05T15:24:22.693Z,92.60
2018-07-05T15:27:02.114Z,92.90
2018-07-05T15:29:41.419Z,92.90
2018-07-05T15:32:21.370Z,93.50
2018-07-05T15:35:00.439Z,93.30
2018-07-05T15:37:39.772Z,93.10
2018-07-05T15:40:19.813Z,92.70
2018-07-05T15:42:58.913Z,91.80
2018-07-05T15:45:38.052Z,91.80
2018-07-05T15:48:17.239Z,91.70
2018-07-05T15:50:56.350Z,90.90
2018-07-05T15:53:38.845Z,91.10
2018-07-05T15:56:18.070Z,90.70
2018-07-05T15:58:57.342Z,90.50
2018-07-05T16:01:36.590Z,90.70
2018-07-05T16:04:16.041Z,90.90
2018-07-05T16:06:55.830Z,90.50
2018-07-05T16:09:35.826Z,90.70
2018-07-05T16:12:16.561Z,90.70
2018-07-05T16:14:55.694Z,90.50
2018-07-05T16:17:34.826Z,90.90
2018-07-05T16:20:13.893Z,91.80
2018-07-05T16:22:53.366Z,92.80
2018-07-05T16:25:32.580Z,92.70
2018-07-05T16:28:11.771Z,93.00
2018-07-05T16:30:51.105Z,93.30
2018-07-05T16:33:33.353Z,93.40
2018-07-05T16:36:12.618Z,94.20
2018-07-05T16:38:51.724Z,94.00
2018-07-05T16:41:31.024Z,94.20
2018-07-05T16:44:11.617Z,94.30
2018-07-05T16:46:50.801Z,94.60
2018-07-05T16:49:29.993Z,94.80
2018-07-05T16:52:10.081Z,95.30
2018-07-05T16:54:49.654Z,95.60
2018-07-05T16:57:29.101Z,95.20
2018-07-05T17:00:08.410Z,95.20
2018-07-05T17:02:47.778Z,95.50
2018-07-05T17:05:26.825Z,95.50
2018-07-05T17:08:08.280Z,95.50
2018-07-05T17:10:47.413Z,95.80
2018-07-05T17:13:28.338Z,96.60
2018-07-05T17:16:07.615Z,96.50
2018-07-05T17:18:46.885Z,96.50
2018-07-05T17:21:27.441Z,97.40
2018-07-05T17:24:07.258Z,97.80
2018-07-05T17:26:46.412Z,98.00
2018-07-05T17:29:27.062Z,98.40
2018-07-05T17:32:08.194Z,98.80
2018-07-05T17:34:47.432Z,98.80
2018-07-05T17:37:27.263Z,98.60
2018-07-05T17:40:06.360Z,98.60
2018-07-05T17:42:45.578Z,98.70
2018-07-05T17:45:24.627Z,99.00
2018-07-05T17:48:03.875Z,99.00
2018-07-05T17:50:43.050Z,99.00
2018-07-05T17:53:23.215Z,99.40
2018-07-05T17:56:03.451Z,99.40
2018-07-05T17:58:42.777Z,99.30
2018-07-05T18:01:22.134Z,99.10
2018-07-05T18:04:01.327Z,99.00
2018-07-05T18:06:42.612Z,99.10
2018-07-05T18:09:21.756Z,99.40
2018-07-05T18:12:02.181Z,99.40
2018-07-05T18:14:42.735Z,99.40
2018-07-05T18:17:23.719Z,99.40
2018-07-05T18:20:03.795Z,99.20
2018-07-05T18:22:42.914Z,99.40
2018-07-05T18:25:22.420Z,99.60
2018-07-05T18:28:01.636Z,99.70
2018-07-05T18:30:40.739Z,99.50
2018-07-05T18:33:19.906Z,99.80
2018-07-05T18:35:59.686Z,99.80
2018-07-05T18:38:40.617Z,99.70
2018-07-05T18:41:19.890Z,99.70
2018-07-05T18:43:59.878Z,99.80
2018-07-05T18:49:13.132Z,99.80
2018-07-05T18:54:30.005Z,99.90
2018-07-05T18:57:09.518Z,99.80
2018-07-05T18:59:48.748Z,99.80
2018-07-05T19:02:29.054Z,99.90
2018-07-05T19:05:08.327Z,99.90
2018-07-05T19:07:48.955Z,99.90
2018-07-05T19:10:28.766Z,99.90
2018-07-05T19:13:08.656Z,99.90
2018-07-05T19:15:49.836Z,99.90
2018-07-05T19:18:28.958Z,99.90
2018-07-05T19:21:08.574Z,99.90
2018-07-05T19:23:47.617Z,99.90
2018-07-05T19:26:35.160Z,99.90
2018-07-05T19:29:19.273Z,99.90
2018-07-05T19:31:59.277Z,99.90
2018-07-05T19:34:39.193Z,99.90
2018-07-05T19:37:21.438Z,99.90
2018-07-05T19:40:01.020Z,99.90
2018-07-05T19:42:40.195Z,99.90
2018-07-05T19:45:20.247Z,99.90
2018-07-05T19:48:00.614Z,99.90
2018-07-05T19:50:39.592Z,99.90
2018-07-05T19:53:19.590Z,99.90
2018-07-05T19:56:03.705Z,99.90
2018-07-05T19:58:45.515Z,99.90
2018-07-05T20:01:26.396Z,99.90
2018-07-05T20:04:05.853Z,99.90
2018-07-05T20:06:44.953Z,99.90
2018-07-05T20:09:24.821Z,99.90
2018-07-05T20:12:05.683Z,99.90
2018-07-05T20:14:45.087Z,99.90
2018-07-05T20:17:25.159Z,99.90
2018-07-05T20:20:04.427Z,99.90
2018-07-05T20:22:43.752Z,99.90
2018-07-05T20:25:24.165Z,99.90
2018-07-05T20:28:18.069Z,99.90
2018-07-05T20:30:59.790Z,99.90
2018-07-05T20:33:46.770Z,99.90
2018-07-05T20:39:00.268Z,99.90
2018-07-05T20:41:44.127Z,99.90
2018-07-05T20:44:23.426Z,99.90
2018-07-05T20:47:03.770Z,99.90
2018-07-05T20:49:43.606Z,99.90
2018-07-05T20:52:22.800Z,99.90
2018-07-05T20:55:03.757Z,99.90
2018-07-05T20:57:43.790Z,99.90
2018-07-05T21:00:22.944Z,99.90
2018-07-05T21:03:02.128Z,99.90
2018-07-05T21:05:43.350Z,99.90
2018-07-05T21:08:24.822Z,99.90
2018-07-05T21:11:04.212Z,99.90
2018-07-05T21:13:44.995Z,99.90
2018-07-05T21:16:26.106Z,99.90
2018-07-05T21:19:05.751Z,99.90
2018-07-05T21:21:44.999Z,99.90
2018-07-05T21:24:25.934Z,99.90
2018-07-05T21:27:05.572Z,99.90
2018-07-05T21:29:46.607Z,99.90
2018-07-05T21:32:26.026Z,99.90
2018-07-05T21:35:05.266Z,99.90
2018-07-05T21:37:44.513Z,99.90
2018-07-05T21:40:23.885Z,99.90
2018-07-05T21:43:04.291Z,99.90
2018-07-05T21:45:43.449Z,99.90
2018-07-05T21:48:22.914Z,99.90
2018-07-05T21:51:05.374Z,99.90
2018-07-05T21:53:44.615Z,99.90
2018-07-05T21:56:24.860Z,99.90
2018-07-05T21:59:04.760Z,99.90
2018-07-05T22:01:51.361Z,99.90
2018-07-05T22:04:30.322Z,99.90
2018-07-05T22:07:18.017Z,99.90
2018-07-05T22:09:57.361Z,99.90
2018-07-05T22:12:38.134Z,99.90
2018-07-05T22:15:19.337Z,99.90
2018-07-05T22:18:05.407Z,99.90
2018-07-05T22:20:50.059Z,99.90
2018-07-05T22:23:34.852Z,99.90
2018-07-05T22:26:51.230Z,99.90
2018-07-05T22:29:36.634Z,99.90
2018-07-05T22:32:17.090Z,99.90
2018-07-05T22:34:56.028Z,99.90
2018-07-05T22:37:36.338Z,99.90
2018-07-05T22:43:02.568Z,99.90
2018-07-05T22:45:41.691Z,99.90
2018-07-05T22:48:23.558Z,99.90
2018-07-05T22:51:04.327Z,99.90
2018-07-05T22:53:43.679Z,99.90
2018-07-05T22:56:23.953Z,99.90
2018-07-05T22:59:04.091Z,99.90
2018-07-05T23:04:18.042Z,99.90
2018-07-05T23:06:57.242Z,99.90
2018-07-05T23:09:36.761Z,99.90
2018-07-05T23:12:16.058Z,99.90
2018-07-05T23:14:55.459Z,99.90
2018-07-05T23:17:35.103Z,99.90
2018-07-05T23:20:15.168Z,99.90
2018-07-05T23:22:54.822Z,99.90
2018-07-05T23:25:33.926Z,99.90
2018-07-05T23:28:13.308Z,99.90
2018-07-05T23:33:28.517Z,99.90
2018-07-05T23:36:07.578Z,99.90
2018-07-05T23:38:47.316Z,99.90
2018-07-05T23:41:26.449Z,99.90
2018-07-05T23:44:05.634Z,99.90
2018-07-05T23:46:45.018Z,99.90
2018-07-05T23:49:24.213Z,99.90
2018-07-05T23:52:03.357Z,99.90
2018-07-05T23:54:42.562Z,99.90
2018-07-05T23:59:58.830Z,99.90
